Time;durP1;ratioP1;P1;durP2;ratioP2;P2;SDS_P1;SDS_P2;PMS_P1;PMS_P2;Temp;Humidity;BMP_temperature;BMP_pressure;BME280_temperature;BME280_humidity;BME280_pressure;Samples;Min_cycle;Max_cycle;Signal;HPM_P1;HPM_P2
2021/04/12 00:02:32;;;;;;;4.53;4.00;;;1.70;99.90;;;;;;5014778;28;20459;-52
2021/04/12 00:05:10;;;;;;;4.00;3.40;;;1.60;99.90;;;;;;5003992;28;20783;-56
2021/04/12 00:07:40;;;;;;;6.00;4.10;;;1.60;99.90;;;;;;4997591;28;20918;-54
2021/04/12 00:10:16;;;;;;;6.40;4.10;;;1.60;99.90;;;;;;4999465;28;20473;-51
2021/04/12 00:12:52;;;;;;;8.40;4.30;;;1.60;99.90;;;;;;4999557;28;20468;-52
2021/04/12 00:15:25;;;;;;;5.93;3.90;;;1.60;99.90;;;;;;5013227;28;20445;-52
2021/04/12 00:17:59;;;;;;;4.87;4.47;;;1.60;99.90;;;;;;5017679;28;20434;-54
2021/04/12 00:20:33;;;;;;;9.20;4.73;;;1.50;99.90;;;;;;5013338;28;20460;-50
2021/04/12 00:23:04;;;;;;;4.50;4.10;;;1.40;99.90;;;;;;5015702;28;20906;-49
2021/04/12 00:25:41;;;;;;;10.57;4.50;;;1.40;99.90;;;;;;5014918;28;20800;-52
2021/04/12 00:28:13;;;;;;;11.30;4.17;;;1.40;99.90;;;;;;5014540;28;20517;-54
2021/04/12 00:30:46;;;;;;;6.00;3.90;;;1.40;99.90;;;;;;5011200;28;20462;-53
2021/04/12 00:33:22;;;;;;;8.03;4.93;;;1.40;99.90;;;;;;5017190;28;20516;-51
2021/04/12 00:35:56;;;;;;;4.80;4.30;;;1.40;99.90;;;;;;5016743;28;20478;-54
2021/04/12 00:38:29;;;;;;;5.20;4.20;;;1.40;99.90;;;;;;4998173;28;20456;-57
2021/04/12 00:41:08;;;;;;;9.50;4.20;;;1.40;99.90;;;;;;4997306;28;20476;-53
2021/04/12 00:43:50;;;;;;;6.43;4.53;;;1.40;99.90;;;;;;4997961;28;20464;-53
2021/04/12 00:46:44;;;;;;;4.73;4.07;;;1.30;99.90;;;;;;5004792;28;20793;-53
2021/04/12 00:49:41;;;;;;;4.80;4.00;;;1.40;99.90;;;;;;5003254;28;20506;-53
2021/04/12 00:52:46;;;;;;;5.93;4.20;;;1.40;99.90;;;;;;5018874;28;20471;-49
2021/04/12 00:55:24;;;;;;;6.07;4.57;;;1.40;99.90;;;;;;4921024;29;20464;-54
2021/04/12 00:58:04;;;;;;;4.30;3.90;;;1.30;99.90;;;;;;5009567;28;20467;-55
2021/04/12 01:00:34;;;;;;;5.23;3.50;;;1.30;99.90;;;;;;5019767;28;20755;-51
2021/04/12 01:03:51;;;;;;;6.30;4.03;;;1.20;99.90;;;;;;5020997;28;20822;-54
2021/04/12 01:06:31;;;;;;;9.53;4.43;;;1.30;99.90;;;;;;4934181;29;20467;-51
2021/04/12 01:09:15;;;;;;;4.73;3.70;;;1.30;99.90;;;;;;4936337;29;20479;-53
2021/04/12 01:12:12;;;;;;;6.93;4.20;;;1.30;99.90;;;;;;5001634;28;20495;-56
2021/04/12 01:15:08;;;;;;;5.23;3.97;;;1.20;99.90;;;;;;5000817;28;20460;-60
2021/04/12 01:17:54;;;;;;;10.10;4.43;;;1.30;99.90;;;;;;5015082;28;20776;-56
2021/04/12 01:20:54;;;;;;;8.73;4.40;;;1.20;99.90;;;;;;5019805;28;20760;-55
2021/04/12 01:23:59;;;;;;;7.30;3.90;;;1.20;99.90;;;;;;5018242;28;20479;-55
2021/04/12 01:27:02;;;;;;;4.60;3.80;;;1.10;99.90;;;;;;5008843;28;20466;-57
2021/04/12 01:30:02;;;;;;;4.70;4.20;;;1.10;99.90;;;;;;5000608;28;20498;-53
2021/04/12 01:33:12;;;;;;;9.60;5.77;;;1.10;99.90;;;;;;5010331;28;20484;-58
2021/04/12 01:36:10;;;;;;;7.13;4.77;;;1.10;99.90;;;;;;5006622;28;20453;-54
2021/04/12 01:38:38;;;;;;;5.80;4.80;;;1.10;99.90;;;;;;5010090;28;20457;-56
2021/04/12 01:41:20;;;;;;;10.17;4.23;;;1.00;99.90;;;;;;5007086;28;20814;-55
2021/04/12 01:44:22;;;;;;;6.10;5.50;;;1.00;99.90;;;;;;5009054;28;20814;-57
2021/04/12 01:46:56;;;;;;;6.30;5.10;;;1.00;99.90;;;;;;5004321;28;20543;-56
2021/04/12 01:49:40;;;;;;;7.20;5.50;;;1.00;99.90;;;;;;5009027;28;20460;-57
2021/04/12 01:52:21;;;;;;;8.90;5.50;;;1.00;99.90;;;;;;5008532;28;21075;-56
2021/04/12 01:55:11;;;;;;;10.07;5.03;;;1.00;99.90;;;;;;5008114;28;20458;-56
2021/04/12 01:58:04;;;;;;;9.40;5.60;;;1.00;99.90;;;;;;5007886;28;20460;-56
2021/04/12 02:00:52;;;;;;;5.57;5.07;;;0.90;99.90;;;;;;5009231;28;20537;-54
2021/04/12 02:03:27;;;;;;;10.20;5.60;;;0.90;99.90;;;;;;5011345;28;20532;-52
2021/04/12 02:06:14;;;;;;;7.03;5.30;;;0.80;99.90;;;;;;5006240;28;21010;-58
2021/04/12 02:08:54;;;;;;;5.90;5.20;;;0.80;99.90;;;;;;5006193;28;20525;-55
2021/04/12 02:11:43;;;;;;;9.23;5.87;;;0.80;99.90;;;;;;5009705;28;20475;-58
2021/04/12 02:14:40;;;;;;;8.17;5.50;;;0.70;99.90;;;;;;5006232;28;20779;-55
2021/04/12 02:17:14;;;;;;;9.00;6.00;;;0.70;99.90;;;;;;5009699;28;20452;-51
2021/04/12 02:19:59;;;;;;;7.40;5.57;;;0.70;99.90;;;;;;5009848;28;20461;-53
2021/04/12 02:22:56;;;;;;;9.97;5.83;;;0.80;99.90;;;;;;5006013;28;20544;-50
2021/04/12 02:25:37;;;;;;;7.43;5.57;;;0.80;99.90;;;;;;5010222;28;20785;-53
2021/04/12 02:28:18;;;;;;;6.30;4.87;;;0.80;99.90;;;;;;5009030;28;20487;-50
2021/04/12 02:30:53;;;;;;;6.27;5.13;;;0.70;99.90;;;;;;5007541;28;20465;-50
2021/04/12 02:33:28;;;;;;;8.13;5.47;;;0.70;99.90;;;;;;5007120;28;20484;-50
2021/04/12 02:36:05;;;;;;;6.90;5.20;;;0.60;99.90;;;;;;5006744;28;20530;-51
2021/04/12 02:38:43;;;;;;;8.83;4.80;;;0.60;99.90;;;;;;5007900;28;20738;-48
2021/04/12 02:41:35;;;;;;;6.70;5.60;;;0.60;99.90;;;;;;5006832;28;20470;-50
2021/04/12 02:44:17;;;;;;;7.67;5.30;;;0.60;99.90;;;;;;5006839;28;20457;-50
2021/04/12 02:47:06;;;;;;;6.93;5.80;;;0.70;99.90;;;;;;5007424;28;20496;-49
2021/04/12 02:49:41;;;;;;;9.20;5.90;;;0.70;99.90;;;;;;5008145;28;20465;-47
2021/04/12 02:52:27;;;;;;;7.07;6.13;;;0.80;99.90;;;;;;5007061;28;20465;-52
2021/04/12 02:55:19;;;;;;;7.30;5.37;;;0.70;99.90;;;;;;5006858;28;20883;-47
2021/04/12 02:58:24;;;;;;;8.07;6.97;;;0.60;99.90;;;;;;5008177;28;20431;-49
2021/04/12 03:01:05;;;;;;;8.80;5.50;;;0.60;99.90;;;;;;4974443;28;20480;-52
2021/04/12 03:04:05;;;;;;;10.07;6.10;;;0.50;99.90;;;;;;5004319;28;20820;-52
2021/04/12 03:07:16;;;;;;;7.90;6.20;;;0.50;99.90;;;;;;5006429;28;20889;-46
2021/04/12 03:10:00;;;;;;;8.53;5.87;;;0.50;99.90;;;;;;5008925;28;20506;-48
2021/04/12 03:12:58;;;;;;;10.53;7.03;;;0.40;99.90;;;;;;5004687;28;20464;-47
2021/04/12 03:16:00;;;;;;;9.20;6.47;;;0.40;99.90;;;;;;5010038;28;20447;-47
2021/04/12 03:19:02;;;;;;;8.80;6.00;;;0.50;99.90;;;;;;4998583;28;20564;-50
2021/04/12 03:22:01;;;;;;;9.60;7.70;;;0.50;99.90;;;;;;5003946;28;20457;-51
2021/04/12 03:24:32;;;;;;;7.40;6.70;;;0.60;99.90;;;;;;4984313;28;20442;-47
2021/04/12 03:27:36;;;;;;;10.80;8.60;;;0.70;99.90;;;;;;5015983;28;20606;-45
2021/04/12 03:30:18;;;;;;;9.93;7.67;;;0.70;99.90;;;;;;5013060;28;20518;-49
2021/04/12 03:33:10;;;;;;;9.50;7.50;;;0.70;99.90;;;;;;5017611;28;20495;-45
2021/04/12 03:35:55;;;;;;;15.20;10.10;;;0.70;99.90;;;;;;5013041;28;20925;-45
2021/04/12 03:38:31;;;;;;;11.17;8.47;;;0.70;99.90;;;;;;5017352;28;20514;-46
2021/04/12 03:41:43;;;;;;;11.53;8.30;;;0.70;99.90;;;;;;5015739;28;20460;-45
2021/04/12 03:44:25;;;;;;;9.90;8.63;;;0.70;99.90;;;;;;5012024;28;20467;-47
2021/04/12 03:47:14;;;;;;;12.53;9.23;;;0.80;99.90;;;;;;5016412;28;20830;-45
2021/04/12 03:50:23;;;;;;;15.33;9.53;;;0.70;99.90;;;;;;5011718;28;20441;-45
2021/04/12 03:53:04;;;;;;;10.70;8.53;;;0.70;99.90;;;;;;5002509;28;20463;-47
2021/04/12 03:56:04;;;;;;;15.00;8.90;;;0.70;99.90;;;;;;5016654;28;20931;-45
2021/04/12 03:59:02;;;;;;;11.83;8.53;;;0.60;99.90;;;;;;4975026;28;20921;-46
2021/04/12 04:02:06;;;;;;;14.13;9.57;;;0.60;99.90;;;;;;5017749;28;20459;-49
2021/04/12 04:05:02;;;;;;;11.20;9.17;;;0.60;99.90;;;;;;5002560;28;20472;-45
2021/04/12 04:07:46;;;;;;;11.37;9.00;;;0.60;99.90;;;;;;5015666;28;20459;-45
2021/04/12 04:10:43;;;;;;;11.50;9.77;;;0.60;99.90;;;;;;4999858;28;20465;-46
2021/04/12 04:13:28;;;;;;;12.33;10.63;;;0.60;99.90;;;;;;5003999;28;20434;-45
2021/04/12 04:16:12;;;;;;;14.90;10.70;;;0.60;99.90;;;;;;5017028;28;20498;-47
2021/04/12 04:18:52;;;;;;;17.23;11.27;;;0.50;99.90;;;;;;5005876;28;20465;-46
2021/04/12 04:21:52;;;;;;;13.97;9.93;;;0.50;99.90;;;;;;5001592;28;20461;-46
2021/04/12 04:24:50;;;;;;;10.80;9.70;;;0.50;99.90;;;;;;5002455;28;20568;-45
2021/04/12 04:27:49;;;;;;;12.50;10.63;;;0.50;99.90;;;;;;5005896;28;20521;-45
2021/04/12 04:30:36;;;;;;;15.10;11.30;;;0.50;99.90;;;;;;4975499;28;20744;-45
2021/04/12 04:33:29;;;;;;;19.80;12.40;;;0.50;99.90;;;;;;5018772;28;20893;-45
2021/04/12 04:36:28;;;;;;;14.40;11.70;;;0.50;99.90;;;;;;5017078;28;20456;-49
2021/04/12 04:39:32;;;;;;;15.77;11.23;;;0.60;99.90;;;;;;5008134;28;20527;-45
2021/04/12 04:42:44;;;;;;;17.20;11.67;;;0.60;99.90;;;;;;5004514;28;20461;-45
2021/04/12 04:45:26;;;;;;;17.10;13.73;;;0.70;99.90;;;;;;4969221;28;20922;-45
2021/04/12 04:48:25;;;;;;;16.47;12.50;;;0.70;99.90;;;;;;5000998;28;20519;-45
2021/04/12 04:51:23;;;;;;;17.40;13.90;;;0.80;99.90;;;;;;5004732;28;20475;-45
2021/04/12 04:54:08;;;;;;;16.63;12.97;;;0.80;99.90;;;;;;5004774;28;20480;-46
2021/04/12 04:56:40;;;;;;;17.20;13.70;;;0.80;99.90;;;;;;5001612;28;20468;-45
2021/04/12 04:59:26;;;;;;;14.73;13.20;;;0.80;99.90;;;;;;5004960;28;20770;-45
2021/04/12 05:02:22;;;;;;;15.43;13.17;;;0.70;99.90;;;;;;5000811;28;20464;-49
2021/04/12 05:05:22;;;;;;;16.27;12.57;;;0.70;99.90;;;;;;5008882;28;20485;-45
2021/04/12 05:08:31;;;;;;;16.23;12.77;;;0.70;99.90;;;;;;4985014;28;20491;-45
2021/04/12 05:11:26;;;;;;;15.27;13.67;;;0.80;99.90;;;;;;5000505;28;20465;-45
2021/04/12 05:14:28;;;;;;;17.00;12.00;;;0.80;99.90;;;;;;5004881;28;20441;-45
2021/04/12 05:17:43;;;;;;;14.33;12.83;;;0.80;99.90;;;;;;5004670;28;20557;-45
2021/04/12 05:20:34;;;;;;;16.40;12.60;;;0.70;99.90;;;;;;4910295;28;20465;-45
2021/04/12 05:23:16;;;;;;;14.97;12.70;;;0.70;99.90;;;;;;5004748;28;20496;-45
2021/04/12 05:26:02;;;;;;;15.60;12.50;;;0.80;99.90;;;;;;5002792;28;20898;-45
2021/04/12 05:29:01;;;;;;;14.57;13.00;;;0.80;99.90;;;;;;5000258;28;20587;-46
2021/04/12 05:32:13;;;;;;;14.83;13.20;;;0.80;99.90;;;;;;5009832;28;20464;-48
2021/04/12 05:35:13;;;;;;;14.93;13.37;;;0.90;99.90;;;;;;4991483;28;20460;-45
2021/04/12 05:38:10;;;;;;;17.40;13.70;;;0.90;99.90;;;;;;5019715;28;20489;-45
2021/04/12 05:41:00;;;;;;;14.07;11.87;;;0.90;99.90;;;;;;5000240;28;20890;-45
2021/04/12 05:44:05;;;;;;;17.10;13.67;;;0.90;99.90;;;;;;5000674;28;20760;-45
2021/04/12 05:47:00;;;;;;;18.67;13.10;;;0.90;99.90;;;;;;4996923;28;20465;-45
2021/04/12 05:49:48;;;;;;;19.10;12.73;;;1.00;99.90;;;;;;5000570;28;20895;-45
2021/04/12 05:52:43;;;;;;;14.90;13.17;;;0.90;99.90;;;;;;5014880;28;20442;-46
2021/04/12 05:55:23;;;;;;;14.77;11.93;;;0.90;99.90;;;;;;5015193;28;20431;-46
2021/04/12 05:58:14;;;;;;;16.20;13.93;;;0.90;99.90;;;;;;5019502;28;20551;-47
2021/04/12 06:00:54;;;;;;;20.60;12.17;;;1.00;99.90;;;;;;5015600;28;20460;-45
2021/04/12 06:03:39;;;;;;;16.40;13.10;;;1.10;99.90;;;;;;5001387;28;20570;-45
2021/04/12 06:06:38;;;;;;;19.03;13.20;;;1.20;99.90;;;;;;5014669;28;20493;-46
2021/04/12 06:09:30;;;;;;;21.40;13.20;;;1.40;99.90;;;;;;5011458;28;20950;-45
2021/04/12 06:12:18;;;;;;;15.70;13.07;;;1.60;99.90;;;;;;5000083;28;20469;-46
2021/04/12 06:15:09;;;;;;;16.67;12.63;;;1.70;99.90;;;;;;5019724;28;20456;-45
2021/04/12 06:18:09;;;;;;;15.33;12.07;;;1.70;99.90;;;;;;5019939;28;20470;-46
2021/04/12 06:21:12;;;;;;;19.10;12.77;;;2.00;99.90;;;;;;5015380;28;20901;-48
2021/04/12 06:24:04;;;;;;;18.40;13.63;;;2.10;99.90;;;;;;5008748;28;20487;-55
2021/04/12 06:26:53;;;;;;;14.50;13.00;;;2.30;99.90;;;;;;5007034;28;20445;-59
2021/04/12 06:29:51;;;;;;;16.47;12.73;;;2.60;99.90;;;;;;4963056;28;20473;-58
2021/04/12 06:32:45;;;;;;;12.83;11.67;;;2.80;99.90;;;;;;4961670;28;20583;-59
2021/04/12 06:35:49;;;;;;;14.10;12.40;;;2.80;99.90;;;;;;4999407;28;20461;-59
2021/04/12 06:38:48;;;;;;;15.27;11.70;;;2.80;99.90;;;;;;4999891;28;20467;-58
2021/04/12 06:41:44;;;;;;;15.60;13.57;;;2.80;99.90;;;;;;4989301;28;20563;-57
2021/04/12 06:44:45;;;;;;;13.87;11.57;;;2.80;99.90;;;;;;4999713;28;20535;-59
2021/04/12 06:48:02;;;;;;;18.13;12.50;;;2.90;99.90;;;;;;5002655;28;20513;-60
2021/04/12 06:50:55;;;;;;;14.10;11.60;;;3.20;99.90;;;;;;4998526;28;20440;-60
2021/04/12 06:53:57;;;;;;;11.73;10.43;;;3.40;99.90;;;;;;5002626;28;20925;-61
2021/04/12 06:56:59;;;;;;;15.23;10.40;;;3.30;99.90;;;;;;4999492;28;20460;-61
2021/04/12 07:00:03;;;;;;;17.50;11.97;;;3.40;99.90;;;;;;5018096;28;20455;-61
2021/04/12 07:03:00;;;;;;;15.20;11.30;;;3.30;99.90;;;;;;4976790;28;20892;-61
2021/04/12 07:06:10;;;;;;;13.67;11.10;;;3.40;99.90;;;;;;5091057;27;20998;-60
2021/04/12 07:09:08;;;;;;;14.27;11.40;;;3.50;99.90;;;;;;5077909;28;20885;-60
2021/04/12 07:12:04;;;;;;;14.57;11.03;;;3.70;99.90;;;;;;5073053;28;20943;-61
2021/04/12 07:15:21;;;;;;;14.47;11.70;;;3.80;99.90;;;;;;5093150;28;20459;-61
2021/04/12 07:18:09;;;;;;;14.67;11.43;;;3.70;99.90;;;;;;5074681;28;20491;-61
2021/04/12 07:21:20;;;;;;;20.87;12.80;;;3.80;99.90;;;;;;5090637;28;20823;-62
2021/04/12 07:24:29;;;;;;;13.77;12.03;;;3.70;99.90;;;;;;5079021;28;20468;-63
2021/04/12 07:27:40;;;;;;;21.03;13.60;;;3.50;99.90;;;;;;5074117;28;20910;-63
2021/04/12 07:30:33;;;;;;;15.70;13.70;;;3.50;99.90;;;;;;5093412;28;20465;-63
2021/04/12 07:33:28;;;;;;;16.50;14.70;;;3.70;99.90;;;;;;5074043;28;20924;-64
2021/04/12 07:36:52;;;;;;;21.17;15.00;;;3.80;99.90;;;;;;5074389;28;20508;-65
2021/04/12 07:39:59;;;;;;;17.57;15.67;;;4.00;99.90;;;;;;5084497;28;20510;-64
2021/04/12 07:43:21;;;;;;;18.67;15.00;;;4.20;99.90;;;;;;5086423;28;20474;-64
2021/04/12 07:46:26;;;;;;;17.10;13.77;;;4.20;99.90;;;;;;5094264;28;20517;-64
2021/04/12 07:49:41;;;;;;;23.20;16.10;;;4.30;99.90;;;;;;5094119;28;20456;-64
2021/04/12 07:52:39;;;;;;;22.03;15.77;;;4.30;1.00;;;;;;5094204;28;20507;-63
2021/04/12 07:55:50;;;;;;;19.90;14.80;;;4.40;1.00;;;;;;5093849;28;20459;-63
2021/04/12 07:59:03;;;;;;;25.70;15.83;;;4.50;99.90;;;;;;5094043;28;20456;-63
2021/04/12 08:01:50;;;;;;;21.70;15.83;;;4.60;99.90;;;;;;5093501;28;20555;-63
2021/04/12 08:04:54;;;;;;;22.57;17.93;;;4.50;99.90;;;;;;5080612;28;20630;-63
2021/04/12 08:08:03;;;;;;;22.57;17.43;;;4.50;99.90;;;;;;5092912;28;20494;-62
2021/04/12 08:11:06;;;;;;;26.10;19.13;;;4.50;99.90;;;;;;5093432;28;20792;-62
2021/04/12 08:14:13;;;;;;;26.63;20.87;;;4.50;99.90;;;;;;5093656;28;20465;-63
2021/04/12 08:17:17;;;;;;;27.43;20.53;;;4.60;99.90;;;;;;5080642;28;20465;-62
2021/04/12 08:20:29;;;;;;;8.20;7.40;;;4.50;99.90;;;;;;5080337;28;20877;-63
2021/04/12 08:23:59;;;;;;;8.70;7.80;;;4.00;1.00;;;;;;5079635;28;20917;-63
2021/04/12 08:27:06;;;;;;;9.00;6.93;;;3.60;10.60;;;;;;5079773;28;20881;-62
2021/04/12 08:30:09;;;;;;;6.13;5.53;;;3.60;99.90;;;;;;5080085;28;20465;-62
2021/04/12 08:33:18;;;;;;;9.53;7.73;;;3.50;1.00;;;;;;5079848;28;20467;-63
2021/04/12 08:36:18;;;;;;;15.43;12.53;;;3.90;1.00;;;;;;5079843;28;20469;-62
2021/04/12 08:39:16;;;;;;;16.33;13.90;;;4.80;91.20;;;;;;5079505;28;20515;-62
2021/04/12 08:42:02;;;;;;;13.70;11.10;;;5.40;99.90;;;;;;5079294;28;20728;-63
2021/04/12 08:45:21;;;;;;;15.53;11.70;;;5.50;1.00;;;;;;5079426;28;20489;-63
2021/04/12 08:48:20;;;;;;;13.13;10.60;;;5.80;54.20;;;;;;5075687;28;20465;-62
2021/04/12 08:51:22;;;;;;;13.33;12.00;;;6.00;99.90;;;;;;5075167;28;20465;-63
2021/04/12 08:54:38;;;;;;;13.80;12.40;;;7.00;99.90;;;;;;5073484;28;20539;-63
2021/04/12 08:57:33;;;;;;;16.07;14.47;;;7.80;99.90;;;;;;5071976;28;20471;-62
2021/04/12 09:00:43;;;;;;;16.03;14.30;;;7.20;1.00;;;;;;5079151;28;20839;-62
2021/04/12 09:03:45;;;;;;;17.73;15.50;;;7.50;32.30;;;;;;5072258;28;20465;-62
2021/04/12 09:06:58;;;;;;;15.70;14.10;;;7.90;1.00;;;;;;5075863;28;20526;-62
2021/04/12 09:09:51;;;;;;;15.10;12.40;;;8.60;1.00;;;;;;5078222;28;20461;-62
2021/04/12 09:12:42;;;;;;;10.40;9.37;;;9.00;1.00;;;;;;5079275;28;20472;-62
2021/04/12 09:15:46;;;;;;;10.30;7.27;;;8.90;1.00;;;;;;5019965;28;20503;-62
2021/04/12 09:18:47;;;;;;;9.17;8.37;;;9.00;1.00;;;;;;5078616;28;20438;-62
2021/04/12 09:21:42;;;;;;;9.87;8.23;;;9.40;1.00;;;;;;5078754;28;20457;-62
2021/04/12 09:24:41;;;;;;;8.77;7.97;;;9.70;1.00;;;;;;5078639;28;20481;-62
2021/04/12 09:27:43;;;;;;;8.40;7.60;;;9.30;1.00;;;;;;5077498;28;20469;-62
2021/04/12 09:30:45;;;;;;;8.27;7.03;;;8.60;1.00;;;;;;5078336;28;20912;-61
2021/04/12 09:33:38;;;;;;;6.50;6.00;;;8.00;1.00;;;;;;5047815;28;20464;-61
2021/04/12 09:36:40;;;;;;;8.20;7.40;;;8.10;1.00;;;;;;5078328;28;20465;-61
2021/04/12 09:39:42;;;;;;;9.33;7.10;;;7.90;1.00;;;;;;5067483;28;20889;-61
2021/04/12 09:42:50;;;;;;;8.63;7.80;;;7.30;1.00;;;;;;5078277;28;20431;-61
2021/04/12 09:45:46;;;;;;;8.43;7.10;;;7.20;1.00;;;;;;5060267;28;20492;-61
2021/04/12 09:48:49;;;;;;;6.60;6.00;;;6.70;1.00;;;;;;5058884;28;20462;-60
2021/04/12 09:51:46;;;;;;;7.70;6.90;;;6.30;1.00;;;;;;5071322;28;20857;-60
2021/04/12 09:54:38;;;;;;;9.10;7.67;;;6.10;1.00;;;;;;5078418;28;20461;-60
2021/04/12 09:57:44;;;;;;;7.10;6.40;;;6.00;1.00;;;;;;5058288;28;20864;-60
2021/04/12 10:00:35;;;;;;;7.27;5.80;;;6.40;1.00;;;;;;5071906;28;20969;-60
2021/04/12 10:03:47;;;;;;;7.40;6.27;;;7.40;1.00;;;;;;5071438;28;20518;-60
2021/04/12 10:06:51;;;;;;;6.00;5.40;;;7.80;1.00;;;;;;5073700;28;20893;-60
2021/04/12 10:09:59;;;;;;;6.97;6.37;;;7.50;1.00;;;;;;5077565;28;20468;-60
2021/04/12 10:13:02;;;;;;;5.20;4.70;;;7.50;1.00;;;;;;5077864;28;20523;-60
2021/04/12 10:15:40;;;;;;;5.77;5.27;;;6.90;1.00;;;;;;5076911;28;20472;-60
2021/04/12 10:18:25;;;;;;;6.20;5.57;;;6.60;1.00;;;;;;5075371;28;20479;-60
2021/04/12 10:20:59;;;;;;;6.47;5.50;;;6.00;1.00;;;;;;5077708;28;20499;-60
2021/04/12 10:23:30;;;;;;;7.13;4.80;;;5.70;1.00;;;;;;5076577;28;20916;-60
2021/04/12 10:26:04;;;;;;;4.83;4.33;;;5.20;1.00;;;;;;5077383;28;20468;-60
2021/04/12 10:28:35;;;;;;;4.37;3.53;;;5.00;1.00;;;;;;5076702;28;21035;-60
2021/04/12 10:31:13;;;;;;;5.53;4.10;;;4.70;1.00;;;;;;5077498;28;20488;-61
2021/04/12 10:33:44;;;;;;;4.63;4.07;;;4.50;1.00;;;;;;5057795;28;20898;-61
2021/04/12 10:36:23;;;;;;;4.37;4.00;;;4.60;5.10;;;;;;5065959;28;20515;-61
2021/04/12 10:38:58;;;;;;;5.37;4.60;;;4.50;69.80;;;;;;5077308;28;20461;-61
2021/04/12 10:41:32;;;;;;;7.03;4.90;;;4.30;99.90;;;;;;5077239;28;20463;-62
2021/04/12 10:44:06;;;;;;;7.17;5.93;;;4.30;1.00;;;;;;5077261;28;20802;-62
2021/04/12 10:46:45;;;;;;;6.87;6.10;;;4.40;1.00;;;;;;5076584;28;20460;-62
2021/04/12 10:49:16;;;;;;;6.80;6.20;;;4.60;99.90;;;;;;5076474;28;20822;-62
2021/04/12 10:51:49;;;;;;;5.77;5.27;;;5.00;1.00;;;;;;5076571;28;20484;-62
2021/04/12 10:54:47;;;;;;;7.13;6.47;;;5.10;99.90;;;;;;5077195;28;20540;-62
2021/04/12 10:57:26;;;;;;;6.87;6.27;;;5.20;99.90;;;;;;5077216;28;20516;-61
2021/04/12 11:00:12;;;;;;;8.47;7.67;;;4.90;99.90;;;;;;5077091;28;20438;-61
2021/04/12 11:02:57;;;;;;;11.10;8.97;;;4.90;99.90;;;;;;5077111;28;20472;-61
2021/04/12 11:05:27;;;;;;;8.10;7.20;;;5.10;99.90;;;;;;5076331;28;20550;-61
2021/04/12 11:08:02;;;;;;;8.33;7.53;;;5.30;1.00;;;;;;5070477;28;20925;-61
2021/04/12 11:10:39;;;;;;;7.10;6.00;;;6.30;1.00;;;;;;5073714;28;20495;-61
2021/04/12 11:13:10;;;;;;;6.80;6.30;;;7.80;99.90;;;;;;5076572;28;20461;-61
2021/04/12 11:16:05;;;;;;;6.43;5.87;;;8.90;1.00;;;;;;5077033;28;20457;-60
2021/04/12 11:18:43;;;;;;;7.77;5.83;;;9.60;1.00;;;;;;5069510;28;20493;-60
2021/04/12 11:21:24;;;;;;;4.90;4.57;;;10.00;1.00;;;;;;5060433;28;20465;-59
2021/04/12 11:24:03;;;;;;;4.87;4.47;;;10.20;1.00;;;;;;5060272;28;20485;-59
2021/04/12 11:27:15;;;;;;;5.67;5.00;;;10.60;1.00;;;;;;5076764;28;20457;-58
2021/04/12 11:29:46;;;;;;;6.17;5.63;;;10.70;1.00;;;;;;5076661;28;20461;-58
2021/04/12 11:32:21;;;;;;;4.63;4.23;;;11.40;1.00;;;;;;5076142;28;20464;-57
2021/04/12 11:34:55;;;;;;;7.13;4.73;;;11.70;99.90;;;;;;5076378;28;20464;-58
2021/04/12 11:37:30;;;;;;;4.00;2.83;;;10.60;99.90;;;;;;5076310;28;20468;-59
2021/04/12 11:40:02;;;;;;;3.20;2.73;;;7.90;1.00;;;;;;5077117;28;20465;-59
2021/04/12 11:42:33;;;;;;;3.03;2.73;;;6.60;1.00;;;;;;5076445;28;20440;-60
2021/04/12 11:45:09;;;;;;;3.83;3.53;;;5.60;1.00;;;;;;5076536;28;20945;-62
2021/04/12 11:47:54;;;;;;;4.30;4.00;;;4.60;1.00;;;;;;5076246;28;20461;-63
2021/04/12 11:50:31;;;;;;;5.10;4.80;;;4.10;99.90;;;;;;5077736;28;20883;-63
2021/04/12 11:53:09;;;;;;;6.40;5.90;;;3.70;1.00;;;;;;5079915;28;20896;-65
2021/04/12 11:55:48;;;;;;;6.70;6.20;;;3.60;99.90;;;;;;5080583;28;20508;-67
2021/04/12 11:58:21;;;;;;;6.57;6.07;;;3.40;1.00;;;;;;5080614;28;20456;-63
2021/04/12 12:01:05;;;;;;;6.00;5.40;;;3.30;1.00;;;;;;5080326;28;20908;-60
2021/04/12 12:04:06;;;;;;;6.40;5.80;;;3.20;8.60;;;;;;5072084;28;20496;-60
2021/04/12 12:06:50;;;;;;;4.33;4.03;;;3.60;1.00;;;;;;5074343;28;20474;-62
2021/04/12 12:09:35;;;;;;;4.20;3.90;;;4.00;99.90;;;;;;5077694;28;20461;-61
2021/04/12 12:12:09;;;;;;;3.57;3.30;;;4.80;99.90;;;;;;5076851;28;21178;-62
2021/04/12 12:14:40;;;;;;;4.17;3.87;;;5.90;18.40;;;;;;5078181;28;20815;-63
2021/04/12 12:17:15;;;;;;;5.70;4.37;;;6.70;73.30;;;;;;5076889;28;20514;-62
2021/04/12 12:19:47;;;;;;;4.70;3.23;;;7.70;4.80;;;;;;5076155;28;20464;-63
2021/04/12 12:22:26;;;;;;;3.90;3.60;;;8.00;1.00;;;;;;5078656;28;20514;-64
2021/04/12 12:25:03;;;;;;;4.37;3.80;;;9.00;1.00;;;;;;5079187;28;20519;-64
2021/04/12 12:27:33;;;;;;;4.80;3.83;;;9.90;1.00;;;;;;5079293;28;20465;-63
2021/04/12 12:30:09;;;;;;;2.87;2.60;;;10.20;1.00;;;;;;5078274;28;20894;-63
2021/04/12 12:32:58;;;;;;;3.03;2.70;;;10.10;1.00;;;;;;5073007;28;20830;-63
2021/04/12 12:35:37;;;;;;;2.60;2.40;;;10.40;1.00;;;;;;5074732;28;20933;-62
2021/04/12 12:38:30;;;;;;;2.80;2.50;;;10.90;1.00;;;;;;5064472;28;20453;-61
2021/04/12 12:41:00;;;;;;;2.57;2.37;;;10.10;1.00;;;;;;5065095;28;20469;-61
2021/04/12 12:43:33;;;;;;;3.20;3.00;;;10.50;1.00;;;;;;5079006;28;20458;-61
2021/04/12 12:46:10;;;;;;;3.27;2.90;;;10.70;1.00;;;;;;5078582;28;20524;-61
2021/04/12 12:48:47;;;;;;;5.23;3.10;;;10.80;99.90;;;;;;5079364;28;20518;-61
2021/04/12 12:51:17;;;;;;;3.40;3.10;;;10.90;99.90;;;;;;5071641;28;20458;-61
2021/04/12 12:53:49;;;;;;;4.57;3.50;;;10.40;99.90;;;;;;5061863;28;20458;-60
2021/04/12 12:56:30;;;;;;;4.00;3.60;;;10.70;99.90;;;;;;5078799;28;20869;-60
2021/04/12 12:59:00;;;;;;;5.50;4.27;;;10.90;99.90;;;;;;5079611;28;20461;-60
2021/04/12 13:01:30;;;;;;;3.80;3.50;;;11.40;99.90;;;;;;5078765;28;20917;-60
2021/04/12 13:04:10;;;;;;;4.77;3.13;;;11.20;99.90;;;;;;5071390;28;20500;-60
2021/04/12 13:06:37;;;;;;;3.23;3.03;;;10.40;99.90;;;;;;5077672;28;20928;-60
2021/04/12 13:09:14;;;;;;;3.20;3.00;;;10.40;99.90;;;;;;5076740;28;20955;-60
2021/04/12 13:11:44;;;;;;;3.77;3.30;;;9.80;99.90;;;;;;5076007;28;20461;-60
2021/04/12 13:14:16;;;;;;;4.40;3.50;;;9.70;99.90;;;;;;5077346;28;20465;-60
2021/04/12 13:16:44;;;;;;;4.83;4.40;;;8.90;99.90;;;;;;5077515;28;20472;-60
2021/04/12 13:19:13;;;;;;;7.00;4.30;;;8.90;99.90;;;;;;5077651;28;20466;-59
2021/04/12 13:21:44;;;;;;;4.37;3.97;;;9.00;99.90;;;;;;5077972;28;20492;-59
2021/04/12 13:24:19;;;;;;;4.60;4.20;;;9.00;99.90;;;;;;5077393;28;20519;-60
2021/04/12 13:26:52;;;;;;;4.83;4.43;;;9.00;99.90;;;;;;5078142;28;20464;-59
2021/04/12 13:29:24;;;;;;;5.90;5.40;;;9.20;99.90;;;;;;5077936;28;20479;-59
2021/04/12 13:31:53;;;;;;;4.60;4.30;;;9.30;99.90;;;;;;5077871;28;20465;-58
2021/04/12 13:34:23;;;;;;;4.50;4.17;;;8.90;99.90;;;;;;5078263;28;20964;-59
2021/04/12 13:37:04;;;;;;;5.10;4.30;;;8.90;99.90;;;;;;5074819;28;20469;-59
2021/04/12 13:39:43;;;;;;;4.50;4.10;;;8.60;99.90;;;;;;5076363;28;20895;-58
2021/04/12 13:42:17;;;;;;;4.23;3.83;;;8.20;99.90;;;;;;5075882;28;20496;-58
2021/04/12 13:44:56;;;;;;;5.07;4.67;;;7.70;1.00;;;;;;5063229;28;20488;-53
2021/04/12 13:47:45;;;;;;;4.10;3.80;;;7.30;1.00;;;;;;5077374;28;20470;-55
2021/04/12 13:50:21;;;;;;;5.27;4.57;;;7.30;1.00;;;;;;5077898;28;20472;-57
2021/04/12 13:52:51;;;;;;;3.97;3.67;;;6.90;1.00;;;;;;5076361;28;20473;-55
2021/04/12 13:55:36;;;;;;;4.47;4.17;;;6.30;1.00;;;;;;5077731;28;20749;-52
2021/04/12 14:00:33;;;;;;;4.30;4.00;;;5.60;1.00;;;;;;5086282;28;20439;-61
2021/04/12 14:03:08;;;;;;;5.70;4.20;;;5.20;53.30;;;;;;5099225;28;20432;-61
2021/04/12 14:05:38;;;;;;;4.90;4.50;;;4.60;99.90;;;;;;5070148;28;20501;-61
2021/04/12 14:08:20;;;;;;;4.50;4.10;;;4.30;99.90;;;;;;5077592;28;20457;-61
2021/04/12 14:10:58;;;;;;;4.50;4.20;;;4.30;1.00;;;;;;5074402;28;20465;-62
2021/04/12 14:13:31;;;;;;;4.37;4.00;;;4.30;1.00;;;;;;5077298;28;20912;-62
2021/04/12 14:16:04;;;;;;;4.67;4.27;;;4.50;99.90;;;;;;5078118;28;20464;-61
2021/04/12 14:18:38;;;;;;;4.50;4.10;;;5.50;99.90;;;;;;5078264;28;20465;-62
2021/04/12 14:21:09;;;;;;;4.63;4.00;;;6.50;99.90;;;;;;5078701;28;20942;-61
2021/04/12 14:23:44;;;;;;;3.90;3.53;;;7.70;99.90;;;;;;5078192;28;20904;-62
2021/04/12 14:26:16;;;;;;;5.13;4.30;;;8.00;1.00;;;;;;5078310;28;20457;-63
2021/04/12 14:28:46;;;;;;;5.60;5.03;;;8.20;1.00;;;;;;5097517;28;20460;-63
2021/04/12 14:31:24;;;;;;;5.13;4.63;;;8.50;1.00;;;;;;5094482;28;20471;-63
2021/04/12 14:33:54;;;;;;;4.80;4.30;;;8.80;1.00;;;;;;5057662;28;20779;-63
2021/04/12 14:36:24;;;;;;;4.17;3.87;;;9.00;1.00;;;;;;5070573;28;20773;-63
2021/04/12 14:38:54;;;;;;;4.50;4.10;;;9.20;1.00;;;;;;5077424;28;20468;-63
2021/04/12 14:41:30;;;;;;;4.47;4.07;;;9.20;1.00;;;;;;5075076;28;20838;-63
2021/04/12 14:44:01;;;;;;;4.13;3.73;;;9.40;1.00;;;;;;5056658;28;20457;-63
2021/04/12 14:46:33;;;;;;;6.37;3.43;;;9.50;1.00;;;;;;5085932;28;20467;-62